Time;durP1;ratioP1;P1;durP2;ratioP2;P2;SDS_P1;SDS_P2;PMS_P1;PMS_P2;Temp;Humidity;BMP_temperature;BMP_pressure;BME280_temperature;BME280_humidity;BME280_pressure;Samples;Min_cycle;Max_cycle;Signal;HPM_P1;HPM_P2
2021/04/19 00:01:05;;;;;;;23.35;19.30;;;;;;;7.80;89.59;100304.41;5078811;28;20028;-63
2021/04/19 00:03:31;;;;;;;26.42;21.15;;;;;;;7.78;89.80;100292.78;5079017;28;20107;-63
2021/04/19 00:05:57;;;;;;;23.20;18.27;;;;;;;7.78;90.24;100296.41;5078807;28;20354;-63
2021/04/19 00:08:22;;;;;;;23.98;18.13;;;;;;;7.80;89.84;100294.00;5078484;28;20035;-63
2021/04/19 00:10:48;;;;;;;25.80;20.05;;;;;;;7.80;90.19;100291.22;5078684;28;20024;-63
2021/04/19 00:13:14;;;;;;;24.35;19.55;;;;;;;7.83;90.46;100295.22;5078443;28;20024;-63
2021/04/19 00:15:40;;;;;;;23.02;18.90;;;;;;;7.82;89.63;100293.63;5078636;28;20025;-63
2021/04/19 00:18:06;;;;;;;26.05;20.35;;;;;;;7.83;90.10;100286.84;5078744;28;20024;-63
2021/04/19 00:20:31;;;;;;;24.58;18.75;;;;;;;7.85;90.07;100292.84;5078554;28;20059;-63
2021/04/19 00:22:57;;;;;;;24.55;19.77;;;;;;;7.85;89.63;100290.03;5084856;28;20048;-63
2021/04/19 00:25:23;;;;;;;23.23;19.17;;;;;;;7.84;89.59;100282.84;5078096;28;20016;-64
2021/04/19 00:27:48;;;;;;;28.33;21.35;;;;;;;7.84;89.91;100291.25;5078614;28;20468;-63
2021/04/19 00:30:14;;;;;;;25.70;20.38;;;;;;;7.84;90.07;100292.03;5078532;28;20054;-63
2021/04/19 00:32:39;;;;;;;26.70;21.25;;;;;;;7.83;89.31;100289.63;5078278;28;20031;-63
2021/04/19 00:35:06;;;;;;;27.13;21.40;;;;;;;7.82;90.08;100290.81;5078483;28;20316;-63
2021/04/19 00:37:32;;;;;;;27.05;21.67;;;;;;;7.83;89.83;100284.84;5078134;28;20793;-63
2021/04/19 00:39:57;;;;;;;26.50;21.15;;;;;;;7.85;89.29;100290.03;5077913;28;20059;-63
2021/04/19 00:42:23;;;;;;;27.15;21.17;;;;;;;7.85;89.72;100287.25;5078126;28;20029;-63
2021/04/19 00:44:48;;;;;;;29.15;21.63;;;;;;;7.83;89.60;100278.44;5078126;28;20435;-63
2021/04/19 00:47:14;;;;;;;29.58;20.50;;;;;;;7.84;89.48;100282.84;5078162;28;20029;-63
2021/04/19 00:49:40;;;;;;;26.75;20.70;;;;;;;7.84;89.77;100282.84;5078003;28;20336;-62
2021/04/19 00:52:07;;;;;;;28.38;22.20;;;;;;;7.84;89.48;100280.03;5078039;28;20025;-63
2021/04/19 00:54:33;;;;;;;25.25;20.13;;;;;;;7.84;89.66;100283.66;5077597;28;20048;-63
2021/04/19 00:57:00;;;;;;;28.55;21.75;;;;;;;7.81;89.22;100280.81;5078038;28;20420;-63
2021/04/19 00:59:25;;;;;;;29.75;22.45;;;;;;;7.81;89.59;100275.22;5077788;28;20074;-63
2021/04/19 01:01:50;;;;;;;29.95;23.05;;;;;;;7.80;89.53;100276.41;5077738;28;20021;-63
2021/04/19 01:04:16;;;;;;;27.60;21.35;;;;;;;7.79;89.21;100274.81;5077650;28;20024;-63
2021/04/19 01:06:42;;;;;;;27.33;21.67;;;;;;;7.78;89.51;100276.81;5077673;28;20032;-62
2021/04/19 01:09:08;;;;;;;29.55;22.15;;;;;;;7.75;89.35;100277.59;5075290;28;20016;-63
2021/04/19 01:11:34;;;;;;;27.50;21.63;;;;;;;7.73;89.93;100280.78;5077700;28;20025;-63
2021/04/19 01:13:59;;;;;;;32.17;23.35;;;;;;;7.75;89.66;100283.19;5059729;28;20027;-63
2021/04/19 01:16:25;;;;;;;28.48;21.50;;;;;;;7.74;89.57;100279.56;5077417;28;20094;-63
2021/04/19 01:18:50;;;;;;;31.60;23.17;;;;;;;7.77;89.65;100274.41;5059791;28;20024;-63
2021/04/19 01:21:16;;;;;;;33.30;23.98;;;;;;;7.77;89.59;100278.00;5079219;28;20016;-62
2021/04/19 01:23:41;;;;;;;32.83;22.98;;;;;;;7.76;90.05;100279.19;5080948;28;20035;-63
2021/04/19 01:26:06;;;;;;;34.60;25.00;;;;;;;7.76;89.70;100279.19;5077156;28;20320;-63
2021/04/19 01:28:32;;;;;;;35.40;24.67;;;;;;;7.74;89.86;100276.78;5077378;28;20301;-63
2021/04/19 01:30:57;;;;;;;34.55;25.98;;;;;;;7.73;89.54;100277.16;5077120;28;20404;-63
2021/04/19 01:33:23;;;;;;;37.40;27.35;;;;;;;7.73;89.77;100272.38;5077148;28;20089;-63
2021/04/19 01:35:49;;;;;;;37.05;26.98;;;;;;;7.73;89.86;100274.38;5077089;28;20499;-63
2021/04/19 01:38:18;;;;;;;38.38;26.52;;;;;;;7.72;90.04;100273.56;5077227;28;20377;-64
2021/04/19 01:40:43;;;;;;;37.78;27.15;;;;;;;7.72;90.00;100273.56;5076651;28;20432;-64
2021/04/19 01:43:08;;;;;;;39.90;27.58;;;;;;;7.70;89.86;100270.34;5076932;28;20105;-63
2021/04/19 01:45:34;;;;;;;37.58;27.27;;;;;;;7.69;89.77;100277.13;5076943;28;20428;-63
2021/04/19 01:48:00;;;;;;;39.63;28.38;;;;;;;7.67;89.69;100262.75;5076606;28;20020;-63
2021/04/19 01:50:28;;;;;;;43.00;29.17;;;;;;;7.64;89.71;100268.28;5076947;28;20475;-66
2021/04/19 01:52:54;;;;;;;40.80;28.67;;;;;;;7.62;89.78;100267.84;5076511;28;20416;-65
2021/04/19 01:55:22;;;;;;;39.70;27.27;;;;;;;7.60;90.04;100271.03;5076787;28;20039;-65
2021/04/19 01:57:51;;;;;;;38.72;26.67;;;;;;;7.59;90.17;100272.22;5076916;28;20324;-63
2021/04/19 02:00:18;;;;;;;42.45;28.60;;;;;;;7.60;90.02;100276.63;5076787;28;20020;-64
2021/04/19 02:03:06;;;;;;;43.05;29.73;;;;;;;7.57;89.58;100274.63;5076447;28;20044;-64
2021/04/19 02:05:50;;;;;;;44.75;30.73;;;;;;;7.57;90.08;100271.81;5076560;28;20030;-65
2021/04/19 02:08:41;;;;;;;50.13;33.45;;;;;;;7.58;89.88;100279.03;5076003;28;20020;-65
2021/04/19 02:11:30;;;;;;;49.40;33.97;;;;;;;7.60;90.39;100279.44;5076516;28;20038;-65
2021/04/19 02:14:17;;;;;;;46.10;31.83;;;;;;;7.61;90.34;100278.25;5065161;28;20036;-66
2021/04/19 02:16:49;;;;;;;42.42;29.08;;;;;;;7.61;89.83;100272.66;5076175;28;20071;-63
2021/04/19 02:19:18;;;;;;;;;;;;;;;7.61;90.32;100275.44;5077098;28;20023;-63
2021/04/19 02:21:48;;;;;;;35.40;25.85;;;;;;;7.61;90.21;100272.66;5078899;28;20045;-63
2021/04/19 02:24:18;;;;;;;40.35;28.48;;;;;;;7.61;89.95;100277.44;5076620;28;20025;-63
2021/04/19 02:26:48;;;;;;;41.65;29.02;;;;;;;7.60;89.59;100270.25;5076160;28;20324;-63
2021/04/19 02:29:19;;;;;;;41.72;29.20;;;;;;;7.58;89.46;100270.63;5076015;28;20108;-63
2021/04/19 02:31:59;;;;;;;43.38;30.33;;;;;;;7.56;89.79;100267.41;5075995;28;20029;-63
2021/04/19 02:34:31;;;;;;;43.97;30.95;;;;;;;7.56;90.11;100267.41;5076027;28;20037;-63
2021/04/19 02:36:58;;;;;;;44.83;30.85;;;;;;;7.57;90.22;100277.41;5089827;28;20051;-64
2021/04/19 02:39:26;;;;;;;41.13;28.85;;;;;;;7.57;90.04;100269.03;5076184;28;20111;-63
2021/04/19 02:41:54;;;;;;;40.78;27.63;;;;;;;7.57;90.20;100269.03;5075517;28;20035;-64
2021/04/19 02:44:21;;;;;;;43.15;28.92;;;;;;;7.57;90.29;100260.63;5076082;28;20066;-63
2021/04/19 02:46:49;;;;;;;37.08;27.30;;;;;;;7.56;89.86;100259.03;5075975;28;20029;-63
2021/04/19 02:49:15;;;;;;;37.42;27.15;;;;;;;7.55;90.16;100262.22;5075554;28;20021;-64
2021/04/19 02:51:42;;;;;;;41.53;27.30;;;;;;;7.54;90.48;100261.41;5075741;28;20035;-64
2021/04/19 02:54:09;;;;;;;36.42;26.83;;;;;;;7.54;90.34;100261.41;5075710;28;20467;-66
2021/04/19 02:56:36;;;;;;;38.08;27.05;;;;;;;7.53;90.27;100254.19;5075741;28;20033;-63
2021/04/19 02:59:06;;;;;;;37.63;27.00;;;;;;;7.52;90.50;100258.19;5076956;28;20375;-64
2021/04/19 03:01:33;;;;;;;42.97;29.23;;;;;;;7.50;90.11;100259.75;5088123;28;20017;-63
2021/04/19 03:04:02;;;;;;;37.65;26.65;;;;;;;7.49;89.88;100253.38;5075536;28;20319;-63
2021/04/19 03:06:30;;;;;;;40.65;27.92;;;;;;;7.50;90.21;100254.16;5057842;28;20028;-65
2021/04/19 03:09:02;;;;;;;41.42;26.95;;;;;;;7.50;90.14;100256.97;5075717;28;20104;-64
2021/04/19 03:11:30;;;;;;;;;;;;;;;7.50;90.65;100257.78;5076035;28;20027;-63
2021/04/19 03:13:58;;;;;;;42.17;27.17;;;;;;;7.50;90.51;100254.97;5075900;28;20027;-64
2021/04/19 03:16:27;;;;;;;40.45;27.92;;;;;;;7.51;90.58;100259.38;5075503;28;20034;-64
2021/04/19 03:18:55;;;;;;;42.58;27.77;;;;;;;7.52;90.54;100251.78;5075436;28;20277;-65
2021/04/19 03:21:25;;;;;;;42.03;29.25;;;;;;;7.54;90.26;100255.00;5077751;28;20116;-65
2021/04/19 03:23:57;;;;;;;41.22;27.95;;;;;;;7.54;89.95;100255.81;5075524;28;20024;-66
2021/04/19 03:26:26;;;;;;;41.28;28.45;;;;;;;7.54;90.31;100255.81;5076193;28;20035;-66
2021/04/19 03:28:54;;;;;;;41.78;28.80;;;;;;;7.53;90.11;100251.41;5079465;28;20060;-66
2021/04/19 03:31:27;;;;;;;46.92;30.08;;;;;;;7.53;89.78;100251.41;5079525;28;20026;-63
2021/04/19 03:33:56;;;;;;;46.08;29.38;;;;;;;7.56;89.81;100259.03;5079243;28;20036;-63
2021/04/19 03:36:23;;;;;;;44.13;29.33;;;;;;;7.57;89.39;100252.25;5079568;28;20297;-63
2021/04/19 03:38:49;;;;;;;41.17;28.17;;;;;;;7.58;90.08;100250.25;5079392;28;20142;-63
2021/04/19 03:41:16;;;;;;;41.25;29.92;;;;;;;7.57;89.70;100248.63;5079297;28;20020;-63
2021/04/19 03:43:56;;;;;;;44.08;30.40;;;;;;;7.58;90.02;100250.25;5079280;28;20026;-63
2021/04/19 03:46:23;;;;;;;44.75;29.15;;;;;;;7.58;90.01;100258.63;5079426;28;20128;-63
2021/04/19 03:48:54;;;;;;;42.95;29.30;;;;;;;7.57;89.72;100249.44;5078835;28;20028;-63
2021/04/19 03:51:22;;;;;;;43.85;29.27;;;;;;;7.57;89.92;100249.44;5079141;28;20024;-63
2021/04/19 03:53:51;;;;;;;41.17;28.38;;;;;;;7.59;89.78;100258.25;5078319;28;20032;-63
2021/04/19 03:56:18;;;;;;;42.95;30.00;;;;;;;7.60;89.65;100254.25;5079034;28;20025;-62
2021/04/19 03:58:46;;;;;;;47.85;31.38;;;;;;;7.59;89.72;100254.66;5078780;28;20408;-63
2021/04/19 04:01:13;;;;;;;44.83;30.77;;;;;;;7.60;89.63;100264.66;5078813;28;20028;-62
2021/04/19 04:03:41;;;;;;;47.35;32.42;;;;;;;7.60;89.38;100259.06;5078656;28;20028;-63
2021/04/19 04:06:09;;;;;;;45.45;30.85;;;;;;;7.59;89.39;100258.25;5058964;28;20036;-65
2021/04/19 04:08:35;;;;;;;48.13;31.85;;;;;;;7.60;89.32;100256.25;5073571;28;20028;-63
2021/04/19 04:11:01;;;;;;;44.20;29.83;;;;;;;7.59;89.27;100263.03;5078481;28;20099;-64
2021/04/19 04:13:29;;;;;;;48.92;33.55;;;;;;;7.59;89.32;100255.44;5078399;28;20039;-65
2021/04/19 04:15:59;;;;;;;50.28;33.40;;;;;;;7.59;89.46;100260.25;5078449;28;20028;-64
2021/04/19 04:18:25;;;;;;;47.63;32.63;;;;;;;7.59;89.13;100263.03;5078610;28;20361;-64
2021/04/19 04:20:51;;;;;;;49.40;32.40;;;;;;;7.59;89.69;100263.03;5078786;28;20024;-62
2021/04/19 04:23:18;;;;;;;55.45;35.75;;;;;;;7.60;90.22;100257.06;5081523;28;20730;-65
2021/04/19 04:25:45;;;;;;;51.80;32.35;;;;;;;7.60;90.04;100265.44;5061014;28;20082;-64
2021/04/19 04:28:11;;;;;;;50.72;33.90;;;;;;;7.61;90.01;100258.66;5075974;28;20352;-66
2021/04/19 04:30:36;;;;;;;52.28;33.05;;;;;;;7.59;89.70;100261.03;5060495;28;20094;-65
2021/04/19 04:33:04;;;;;;;50.40;33.10;;;;;;;7.59;90.10;100258.25;5077833;28;20039;-66
2021/04/19 04:35:29;;;;;;;50.08;32.83;;;;;;;7.58;89.52;100256.63;5074569;28;20025;-66
2021/04/19 04:37:55;;;;;;;49.83;33.17;;;;;;;7.54;89.69;100258.59;5075543;28;20025;-65
2021/04/19 04:40:20;;;;;;;52.83;34.72;;;;;;;7.55;89.64;100251.00;5074247;28;20316;-64
2021/04/19 04:42:49;;;;;;;51.53;35.53;;;;;;;7.58;89.94;100256.63;5066375;28;20020;-64
2021/04/19 04:45:15;;;;;;;53.70;35.35;;;;;;;7.57;89.78;100257.84;5073886;28;20124;-64
2021/04/19 04:48:07;;;;;;;48.17;33.80;;;;;;;7.58;89.60;100251.03;5076748;28;20103;-64
2021/04/19 04:50:49;;;;;;;50.47;33.15;;;;;;;7.59;89.74;100254.66;5059833;28;20016;-64
2021/04/19 04:53:22;;;;;;;53.47;35.25;;;;;;;7.59;89.81;100246.25;5077262;28;20033;-64
2021/04/19 04:55:48;;;;;;;50.42;34.00;;;;;;;7.60;89.65;100262.66;5077545;28;20052;-64
2021/04/19 04:58:17;;;;;;;50.63;33.85;;;;;;;7.66;89.88;100255.50;5077782;28;20020;-65
2021/04/19 05:00:44;;;;;;;51.50;32.90;;;;;;;7.64;89.19;100259.88;5059629;28;20047;-64
2021/04/19 05:03:11;;;;;;;51.47;34.65;;;;;;;7.64;89.49;100260.69;5077513;28;20100;-64
2021/04/19 05:05:39;;;;;;;53.53;33.42;;;;;;;7.65;89.28;100262.28;5077664;28;20056;-64
2021/04/19 05:08:05;;;;;;;52.05;33.75;;;;;;;7.66;89.66;100257.50;5076982;28;20077;-64
2021/04/19 05:10:31;;;;;;;51.72;33.92;;;;;;;7.67;89.68;100265.53;5077600;28;20102;-64
2021/04/19 05:12:56;;;;;;;53.05;33.47;;;;;;;7.70;89.40;100259.16;5077464;28;20051;-64
2021/04/19 05:15:22;;;;;;;52.65;35.30;;;;;;;7.70;89.10;100267.56;5077218;28;20419;-64
2021/04/19 05:17:47;;;;;;;50.85;33.20;;;;;;;7.72;89.26;100262.38;5077232;28;20028;-64
2021/04/19 05:20:14;;;;;;;49.33;32.03;;;;;;;7.74;89.54;100264.78;5077421;28;20347;-64
2021/04/19 05:22:41;;;;;;;50.40;34.30;;;;;;;7.73;89.21;100257.59;5080939;28;20078;-64
2021/04/19 05:25:08;;;;;;;52.78;33.67;;;;;;;7.75;89.04;100253.19;5077533;28;20024;-64
2021/04/19 05:27:34;;;;;;;54.08;34.47;;;;;;;7.79;88.92;100252.44;5077402;28;20045;-64
2021/04/19 05:29:59;;;;;;;53.92;34.45;;;;;;;7.79;88.67;100256.03;5076964;28;20067;-65
2021/04/19 05:32:28;;;;;;;52.83;34.80;;;;;;;7.83;88.37;100250.47;5077155;28;20025;-64
2021/04/19 05:34:59;;;;;;;58.38;36.35;;;;;;;7.86;88.32;100252.47;5077361;28;20085;-65
2021/04/19 05:37:26;;;;;;;58.35;37.53;;;;;;;7.83;88.53;100256.84;5077051;28;20027;-66
2021/04/19 05:39:51;;;;;;;63.28;40.05;;;;;;;7.84;88.19;100264.06;5077260;28;20039;-65
2021/04/19 05:42:17;;;;;;;67.18;41.22;;;;;;;7.86;87.59;100258.06;5076782;28;20025;-66
2021/04/19 05:44:43;;;;;;;64.50;39.92;;;;;;;7.85;88.02;100262.06;5076819;28;20055;-66
2021/04/19 05:47:09;;;;;;;63.75;40.33;;;;;;;7.84;88.00;100264.06;5076775;28;20055;-64
2021/04/19 05:49:35;;;;;;;69.53;43.05;;;;;;;7.89;87.54;100265.69;5076030;28;20033;-64
2021/04/19 05:52:04;;;;;;;70.10;42.22;;;;;;;7.96;86.42;100265.78;5076963;28;20138;-64
2021/04/19 05:54:31;;;;;;;67.57;42.88;;;;;;;7.93;86.26;100266.53;5076708;28;20431;-64
2021/04/19 05:57:34;;;;;;;68.93;42.25;;;;;;;7.93;86.39;100264.53;5076904;28;20035;-64
2021/04/19 06:00:19;;;;;;;65.22;40.40;;;;;;;7.95;86.38;100261.38;5065702;28;20095;-64
2021/04/19 06:02:58;;;;;;;63.08;39.25;;;;;;;7.96;86.44;100260.97;5076386;28;20032;-65
2021/04/19 06:05:30;;;;;;;66.32;40.42;;;;;;;8.02;86.41;100258.59;5076769;28;20020;-64
2021/04/19 06:08:08;;;;;;;66.50;40.70;;;;;;;8.08;86.10;100254.25;5076741;28;20039;-64
2021/04/19 06:10:45;;;;;;;69.15;42.88;;;;;;;8.11;86.05;100256.28;5076531;28;20119;-64
2021/04/19 06:13:14;;;;;;;68.43;42.28;;;;;;;8.11;85.74;100256.28;5076052;28;20016;-64
2021/04/19 06:15:40;;;;;;;67.80;42.55;;;;;;;8.16;86.44;100261.50;5076570;28;20118;-64
2021/04/19 06:18:07;;;;;;;68.95;42.45;;;;;;;8.19;86.19;100262.72;5076150;28;20025;-64
2021/04/19 06:20:34;;;;;;;72.93;44.63;;;;;;;8.19;85.77;100257.13;5076366;28;20020;-64
2021/04/19 06:22:59;;;;;;;71.20;43.80;;;;;;;8.20;84.85;100265.13;5079428;28;20032;-65
2021/04/19 06:25:25;;;;;;;74.45;43.22;;;;;;;8.22;85.99;100257.16;5076120;28;20415;-64
2021/04/19 06:28:05;;;;;;;65.20;40.97;;;;;;;8.26;85.66;100266.38;5076163;28;20050;-65
2021/04/19 06:30:33;;;;;;;64.53;40.03;;;;;;;8.28;85.00;100260.41;5076017;28;20033;-65
2021/04/19 06:33:00;;;;;;;70.22;43.85;;;;;;;8.28;85.06;100258.41;5076249;28;20032;-67
2021/04/19 06:35:25;;;;;;;66.57;42.13;;;;;;;8.34;85.43;100259.66;5075844;28;20089;-67
2021/04/19 06:37:54;;;;;;;71.30;44.38;;;;;;;8.36;85.54;100257.28;5076179;28;20467;-65
2021/04/19 06:40:19;;;;;;;69.70;43.47;;;;;;;8.39;85.37;100254.88;5058035;28;20457;-67
2021/04/19 06:42:45;;;;;;;61.58;38.58;;;;;;;8.44;83.81;100251.69;5075729;28;20028;-66
2021/04/19 06:45:14;;;;;;;65.85;39.10;;;;;;;8.47;82.68;100264.91;5076035;28;20049;-65
2021/04/19 06:47:40;;;;;;;58.90;35.85;;;;;;;8.47;82.13;100260.13;5058120;28;20102;-65
2021/04/19 06:50:06;;;;;;;63.15;38.70;;;;;;;8.50;82.28;100262.16;5058108;28;20111;-65
2021/04/19 06:52:32;;;;;;;60.58;38.63;;;;;;;8.52;83.21;100258.97;5075734;28;20301;-64
2021/04/19 06:54:58;;;;;;;62.13;38.70;;;;;;;8.52;83.24;100258.97;5076151;28;20031;-66
2021/04/19 06:57:28;;;;;;;62.97;38.15;;;;;;;8.53;82.59;100257.78;5075492;28;20024;-64
2021/04/19 06:59:54;;;;;;;65.80;40.53;;;;;;;8.55;83.41;100258.97;5075739;28;20062;-64
2021/04/19 07:02:22;;;;;;;63.60;40.63;;;;;;;8.55;82.83;100256.19;5075575;28;20047;-64
2021/04/19 07:04:55;;;;;;;60.38;38.95;;;;;;;8.58;82.22;100251.78;5075788;28;20343;-64
2021/04/19 07:07:30;;;;;;;60.53;38.30;;;;;;;8.57;81.45;100256.59;5075787;28;20032;-64
2021/04/19 07:09:59;;;;;;;74.35;44.65;;;;;;;8.57;81.78;100255.78;5062690;28;20047;-64
2021/04/19 07:12:25;;;;;;;59.92;38.30;;;;;;;8.61;81.13;100265.81;5075430;28;20099;-65
2021/04/19 07:14:54;;;;;;;68.75;42.05;;;;;;;8.62;81.45;100255.41;5075501;28;20430;-64
2021/04/19 07:17:19;;;;;;;67.93;42.33;;;;;;;8.61;82.56;100262.22;5075637;28;20028;-64
2021/04/19 07:19:45;;;;;;;67.93;41.70;;;;;;;8.63;81.95;100260.63;5075496;28;20024;-64
2021/04/19 07:22:17;;;;;;;61.78;38.30;;;;;;;8.67;81.30;100250.22;5078793;28;20017;-65
2021/04/19 07:24:42;;;;;;;;;;;;;;;8.71;81.32;100250.25;5076075;28;20060;-64
2021/04/19 07:27:11;;;;;;;60.10;37.47;;;;;;;8.75;81.30;100247.44;5079732;28;19966;-64
2021/04/19 07:29:37;;;;;;;60.03;40.25;;;;;;;8.79;81.97;100249.09;5084749;28;20355;-64
2021/04/19 07:32:03;;;;;;;66.47;40.75;;;;;;;8.81;82.08;100243.88;5075399;28;20055;-64
2021/04/19 07:34:31;;;;;;;64.38;40.38;;;;;;;8.84;81.36;100248.72;5057613;28;20379;-64
2021/04/19 07:37:02;;;;;;;62.38;38.85;;;;;;;8.87;79.27;100245.13;5075595;28;20020;-65
2021/04/19 07:39:33;;;;;;;56.65;35.67;;;;;;;8.89;78.72;100251.13;5075574;28;20044;-64
2021/04/19 07:42:00;;;;;;;55.25;35.25;;;;;;;8.90;79.04;100244.31;5075034;28;20470;-64
2021/04/19 07:44:34;;;;;;;60.45;37.22;;;;;;;8.90;78.66;100241.53;5075495;28;20044;-65
2021/04/19 07:47:19;;;;;;;59.75;37.20;;;;;;;8.93;78.04;100240.72;5057320;28;20107;-64
2021/04/19 07:50:19;;;;;;;54.58;34.58;;;;;;;8.96;77.78;100239.13;5075360;28;20297;-64
2021/04/19 07:53:00;;;;;;;55.88;35.88;;;;;;;9.01;78.17;100240.75;5070489;28;20107;-65
2021/04/19 07:55:40;;;;;;;57.60;34.70;;;;;;;8.99;78.21;100244.75;5075217;28;20320;-64
2021/04/19 07:58:08;;;;;;;51.72;33.35;;;;;;;9.03;78.52;100232.72;5062621;28;20017;-64
2021/04/19 08:00:38;;;;;;;47.88;32.20;;;;;;;9.05;78.94;100238.78;5075291;28;20343;-64
2021/04/19 08:03:15;;;;;;;52.65;33.10;;;;;;;9.07;77.55;100239.19;5043931;28;20021;-65
2021/04/19 08:05:42;;;;;;;52.70;33.45;;;;;;;9.09;77.65;100231.97;5075545;28;20073;-65
2021/04/19 08:08:09;;;;;;;50.25;31.70;;;;;;;9.13;78.10;100231.97;5075281;28;20117;-64
2021/04/19 08:10:38;;;;;;;47.40;30.20;;;;;;;9.17;78.20;100229.97;5074792;28;20450;-64
2021/04/19 08:13:19;;;;;;;47.88;30.15;;;;;;;9.20;77.59;100232.78;5076549;28;20130;-66
2021/04/19 08:15:46;;;;;;;47.93;31.27;;;;;;;9.31;77.86;100232.78;5078916;28;20031;-64
2021/04/19 08:18:19;;;;;;;40.95;28.35;;;;;;;9.34;75.98;100225.63;5078718;28;20253;-64
2021/04/19 08:20:53;;;;;;;41.50;28.60;;;;;;;9.37;76.81;100222.81;5078530;28;20086;-65
2021/04/19 08:23:20;;;;;;;44.38;29.08;;;;;;;9.45;77.09;100224.41;5081770;28;20028;-64
2021/04/19 08:25:50;;;;;;;44.85;28.75;;;;;;;9.49;76.17;100216.81;5078952;28;20020;-64
2021/04/19 08:28:21;;;;;;;39.78;27.10;;;;;;;9.55;75.68;100220.81;5078274;28;20423;-64
2021/04/19 08:30:50;;;;;;;37.33;26.05;;;;;;;9.56;75.51;100216.81;5078464;28;20102;-64
2021/04/19 08:33:15;;;;;;;32.83;23.08;;;;;;;9.58;74.84;100222.81;5078349;28;20109;-66
2021/04/19 08:35:43;;;;;;;34.42;23.25;;;;;;;9.62;74.05;100224.84;5078358;28;20103;-65
2021/04/19 08:38:09;;;;;;;32.42;22.13;;;;;;;9.60;74.26;100220.44;5078231;28;20021;-65
2021/04/19 08:40:38;;;;;;;33.95;23.20;;;;;;;9.59;74.67;100218.84;5060258;28;20396;-64
2021/04/19 08:43:08;;;;;;;32.55;21.77;;;;;;;9.63;73.82;100224.44;5078530;28;20332;-66
2021/04/19 08:45:38;;;;;;;32.63;23.50;;;;;;;9.64;73.58;100216.81;5078047;28;20109;-65
2021/04/19 08:48:09;;;;;;;34.83;23.80;;;;;;;9.62;73.94;100222.84;5078160;28;20348;-64
2021/04/19 08:50:35;;;;;;;41.03;26.52;;;;;;;9.62;75.32;100220.03;5060255;28;20027;-65
2021/04/19 08:53:00;;;;;;;44.78;29.02;;;;;;;9.60;75.59;100220.44;5077984;28;20428;-65
2021/04/19 08:55:26;;;;;;;48.08;30.27;;;;;;;9.61;76.60;100221.22;5077990;28;20029;-64
2021/04/19 08:57:52;;;;;;;44.08;30.38;;;;;;;9.62;76.06;100225.66;5078115;28;20396;-64
2021/04/19 09:00:22;;;;;;;44.30;30.80;;;;;;;9.60;76.29;100223.25;5078073;28;20017;-64
2021/04/19 09:02:48;;;;;;;46.65;30.10;;;;;;;9.62;75.86;100224.84;5077659;28;20020;-65
2021/04/19 09:05:16;;;;;;;50.28;31.50;;;;;;;9.58;75.56;100225.63;5077957;28;20293;-64
2021/04/19 09:07:45;;;;;;;43.55;28.88;;;;;;;9.59;74.94;100226.44;5059799;28;20024;-64
2021/04/19 09:10:16;;;;;;;49.28;29.38;;;;;;;9.56;76.44;100230.03;5077617;28;20448;-64
2021/04/19 09:12:42;;;;;;;41.97;28.52;;;;;;;9.56;75.59;100233.63;5059839;28;20301;-65
2021/04/19 09:15:15;;;;;;;41.53;28.35;;;;;;;9.55;76.79;100232.03;5077743;28;20023;-64
2021/04/19 09:17:41;;;;;;;40.13;26.25;;;;;;;9.58;75.46;100236.03;5077433;28;20024;-66
2021/04/19 09:20:12;;;;;;;48.17;28.83;;;;;;;9.59;76.04;100230.06;5077492;28;20028;-66
2021/04/19 09:22:38;;;;;;;38.58;26.55;;;;;;;9.59;75.62;100232.06;5080608;28;20021;-65
2021/04/19 09:25:07;;;;;;;37.35;25.20;;;;;;;9.60;74.58;100234.47;5077160;28;20043;-64
2021/04/19 09:27:56;;;;;;;33.95;23.67;;;;;;;9.63;74.09;100234.88;5077632;28;20035;-64
2021/04/19 09:30:27;;;;;;;34.08;23.73;;;;;;;9.65;75.01;100226.84;5077128;28;20020;-64
2021/04/19 09:33:01;;;;;;;35.63;24.85;;;;;;;9.66;74.20;100236.88;5077443;28;20060;-64
2021/04/19 09:35:39;;;;;;;36.70;25.35;;;;;;;9.67;75.55;100239.28;5077006;28;20055;-64
2021/04/19 09:38:05;;;;;;;39.72;26.88;;;;;;;9.70;75.66;100235.66;5077331;28;20104;-64
2021/04/19 09:40:46;;;;;;;40.95;24.58;;;;;;;9.67;75.18;100244.88;5077074;28;20028;-64
2021/04/19 09:43:12;;;;;;;36.47;23.38;;;;;;;9.67;75.03;100232.84;5077230;28;20025;-64
2021/04/19 09:45:54;;;;;;;34.40;23.92;;;;;;;9.63;75.86;100240.47;5076835;28;20099;-64
2021/04/19 09:48:30;;;;;;;36.05;23.25;;;;;;;9.61;75.97;100238.06;5077094;28;20016;-64
2021/04/19 09:51:08;;;;;;;34.20;22.70;;;;;;;9.60;76.27;100242.09;5058821;28;20035;-64
2021/04/19 09:53:33;;;;;;;34.97;22.00;;;;;;;9.59;75.07;100238.47;5059314;28;20470;-64
2021/04/19 09:55:59;;;;;;;31.02;21.52;;;;;;;9.55;75.02;100236.84;5076780;28;20017;-64
2021/04/19 09:58:24;;;;;;;35.60;23.50;;;;;;;9.55;76.10;100236.84;5076821;28;20032;-64
2021/04/19 10:00:57;;;;;;;39.80;24.33;;;;;;;9.53;75.70;100228.81;5076585;28;20020;-64
2021/04/19 10:03:23;;;;;;;37.60;24.08;;;;;;;9.53;75.78;100220.41;5076626;28;20032;-64
2021/04/19 10:05:51;;;;;;;37.58;24.60;;;;;;;9.54;74.98;100221.22;5076343;28;20024;-64
2021/04/19 10:08:18;;;;;;;40.90;24.70;;;;;;;9.54;75.76;100219.19;5076553;28;20427;-64
2021/04/19 10:10:50;;;;;;;32.92;21.83;;;;;;;9.53;74.99;100223.22;5076632;28;20032;-64
2021/04/19 10:13:15;;;;;;;35.00;22.83;;;;;;;9.55;75.15;100225.63;5076385;28;20021;-64
2021/04/19 10:15:40;;;;;;;35.72;24.10;;;;;;;9.54;75.07;100227.63;5076560;28;20147;-64
2021/04/19 10:18:10;;;;;;;31.58;21.02;;;;;;;9.54;75.54;100212.78;5076101;28;20028;-63
2021/04/19 10:20:37;;;;;;;33.20;21.65;;;;;;;9.58;75.21;100220.00;5076210;28;20025;-64
2021/04/19 10:23:13;;;;;;;53.45;33.30;;;;;;;9.57;75.25;100218.41;5089863;28;20127;-64
2021/04/19 10:25:51;;;;;;;41.65;25.90;;;;;;;9.60;74.97;100223.25;5063278;28;20052;-64
2021/04/19 10:28:32;;;;;;;45.38;28.02;;;;;;;9.60;75.89;100217.63;5058407;28;20059;-64
2021/04/19 10:31:09;;;;;;;53.92;35.25;;;;;;;9.57;75.98;100214.78;5076341;28;20035;-64
2021/04/19 10:33:35;;;;;;;41.42;27.65;;;;;;;9.59;77.02;100216.03;5070711;28;20032;-64
2021/04/19 10:36:26;;;;;;;40.45;24.42;;;;;;;9.65;76.41;100218.44;5075553;28;20055;-64
2021/04/19 10:38:57;;;;;;;38.65;22.75;;;;;;;9.66;76.75;100214.41;5076057;28;20028;-64
2021/04/19 10:41:30;;;;;;;29.73;17.73;;;;;;;9.68;76.33;100212.00;5075882;28;20024;-64
2021/04/19 10:43:55;;;;;;;34.53;22.35;;;;;;;9.69;76.34;100211.59;5075752;28;20331;-64
2021/04/19 10:46:32;;;;;;;38.58;22.80;;;;;;;9.72;75.54;100208.00;5076102;28;20036;-64
2021/04/19 10:49:00;;;;;;;34.78;23.65;;;;;;;9.78;76.18;100211.19;5075613;28;20083;-64
2021/04/19 10:51:28;;;;;;;39.35;25.13;;;;;;;9.81;75.21;100204.78;5058123;28;20463;-64
2021/04/19 10:53:58;;;;;;;37.85;24.17;;;;;;;9.82;75.29;100207.19;5075786;28;20380;-64
2021/04/19 10:56:24;;;;;;;46.63;25.42;;;;;;;9.85;74.99;100195.13;5075751;28;20028;-64
2021/04/19 10:58:54;;;;;;;37.83;23.52;;;;;;;9.91;74.64;100201.97;5075927;28;20024;-64
2021/04/19 11:01:21;;;;;;;35.65;22.00;;;;;;;9.97;73.60;100204.38;5058211;28;20107;-64
2021/04/19 11:03:47;;;;;;;39.55;24.75;;;;;;;9.97;74.61;100198.75;5075713;28;20086;-64
2021/04/19 11:06:12;;;;;;;35.78;23.55;;;;;;;9.99;74.43;100204.75;5075610;28;20032;-64
2021/04/19 11:08:54;;;;;;;31.92;20.27;;;;;;;10.00;74.27;100200.75;5075778;28;20035;-64
2021/04/19 11:11:38;;;;;;;;;;;;;;;10.01;73.39;100193.94;5075770;28;20031;-63
2021/04/19 11:14:17;;;;;;;36.08;20.75;;;;;;;10.03;73.57;100185.91;5075695;28;19908;-64
2021/04/19 11:16:49;;;;;;;33.78;21.30;;;;;;;10.04;74.45;100193.91;5062280;28;20116;-64
2021/04/19 11:19:37;;;;;;;36.33;22.98;;;;;;;10.07;74.53;100190.31;5075488;28;20308;-64
2021/04/19 11:22:22;;;;;;;36.40;23.00;;;;;;;10.11;73.88;100190.28;5075551;28;20098;-64
2021/04/19 11:24:48;;;;;;;34.03;22.15;;;;;;;10.16;73.97;100184.28;5089041;28;20016;-64
2021/04/19 11:27:13;;;;;;;34.33;22.60;;;;;;;10.20;73.75;100188.72;5075968;28;20025;-64